Time;durP1;ratioP1;P1;durP2;ratioP2;P2;SDS_P1;SDS_P2;PMS_P1;PMS_P2;Temp;Humidity;BMP_temperature;BMP_pressure;BME280_temperature;BME280_humidity;BME280_pressure;Samples;Min_cycle;Max_cycle;Signal;HPM_P1;HPM_P2
2023/12/08 00:02:15;;;;;;;36.53;19.30;;;1.50;71.40;;;;;;5046697;28;20029;-61
2023/12/08 00:04:41;;;;;;;35.20;19.42;;;1.50;71.10;;;;;;5047470;28;20032;-61
2023/12/08 00:07:06;;;;;;;30.88;18.08;;;1.50;71.20;;;;;;5050120;28;20029;-60
2023/12/08 00:09:32;;;;;;;31.42;19.17;;;1.50;71.20;;;;;;5044944;28;20420;-62
2023/12/08 00:11:58;;;;;;;34.42;19.50;;;1.50;71.20;;;;;;5050204;28;20414;-61
2023/12/08 00:14:23;;;;;;;34.72;19.23;;;1.50;71.20;;;;;;5052647;28;20096;-61
2023/12/08 00:16:49;;;;;;;34.55;19.58;;;1.50;71.20;;;;;;5050805;28;20060;-62
2023/12/08 00:19:14;;;;;;;33.20;18.98;;;1.50;71.30;;;;;;5049227;28;20021;-61
2023/12/08 00:21:40;;;;;;;37.20;19.88;;;1.50;71.20;;;;;;5049998;28;20033;-61
2023/12/08 00:24:06;;;;;;;34.03;19.75;;;1.50;71.20;;;;;;5050543;28;20064;-61
2023/12/08 00:26:31;;;;;;;39.05;19.77;;;1.50;71.20;;;;;;5047299;28;20373;-61
2023/12/08 00:28:57;;;;;;;35.33;19.13;;;1.50;71.20;;;;;;5049827;28;20068;-61
2023/12/08 00:31:23;;;;;;;33.42;19.58;;;1.50;71.20;;;;;;5045488;28;20171;-60
2023/12/08 00:33:48;;;;;;;33.63;18.95;;;1.80;71.40;;;;;;5050950;28;20024;-61
2023/12/08 00:36:16;;;;;;;35.53;19.90;;;1.60;71.30;;;;;;5050192;28;20033;-60
2023/12/08 00:38:45;;;;;;;39.45;20.10;;;1.60;71.30;;;;;;5049562;28;20032;-59
2023/12/08 00:41:11;;;;;;;35.38;19.27;;;1.60;71.30;;;;;;5046337;28;20052;-61
2023/12/08 00:43:36;;;;;;;34.63;20.25;;;1.60;71.30;;;;;;5049942;28;20067;-60
2023/12/08 00:46:03;;;;;;;34.63;19.45;;;1.60;71.30;;;;;;5045751;28;20028;-61
2023/12/08 00:48:29;;;;;;;32.63;19.25;;;1.60;71.30;;;;;;5045708;28;20032;-61
2023/12/08 00:50:55;;;;;;;31.30;19.02;;;1.70;71.30;;;;;;5047412;28;22961;-61
2023/12/08 00:53:21;;;;;;;32.17;19.60;;;1.70;71.30;;;;;;5050183;28;20033;-61
2023/12/08 00:55:46;;;;;;;34.25;20.58;;;1.70;71.20;;;;;;5048450;28;20025;-60
2023/12/08 00:58:15;;;;;;;34.53;19.10;;;1.70;71.10;;;;;;5045983;28;20480;-61
2023/12/08 01:00:41;;;;;;;31.33;19.55;;;1.70;71.20;;;;;;5047471;28;20048;-61
2023/12/08 01:03:06;;;;;;;32.65;18.90;;;1.70;71.30;;;;;;5047113;28;20016;-61
2023/12/08 01:05:32;;;;;;;31.75;19.30;;;1.70;71.20;;;;;;5040391;28;20083;-60
2023/12/08 01:07:57;;;;;;;34.35;19.00;;;1.70;71.10;;;;;;5048320;28;20079;-62
2023/12/08 01:10:23;;;;;;;33.95;19.98;;;1.70;71.10;;;;;;5047195;28;20041;-62
2023/12/08 01:12:49;;;;;;;29.85;18.30;;;1.70;71.20;;;;;;5051100;28;20021;-61
2023/12/08 01:15:14;;;;;;;34.88;19.88;;;1.70;71.20;;;;;;5046423;28;20024;-61
2023/12/08 01:17:40;;;;;;;35.70;20.45;;;1.70;71.20;;;;;;5052841;28;20040;-61
2023/12/08 01:20:07;;;;;;;38.05;21.10;;;1.70;71.20;;;;;;5046240;28;20036;-61
2023/12/08 01:22:33;;;;;;;35.80;20.88;;;1.70;71.30;;;;;;5045601;28;20024;-61
2023/12/08 01:24:59;;;;;;;36.00;20.55;;;1.80;71.30;;;;;;5045342;28;20031;-62
2023/12/08 01:27:25;;;;;;;36.58;19.45;;;1.80;71.30;;;;;;5044240;28;20129;-60
2023/12/08 01:29:51;;;;;;;34.58;20.08;;;1.70;71.20;;;;;;5046832;28;20182;-61
2023/12/08 01:32:17;;;;;;;37.28;20.13;;;1.70;71.00;;;;;;5048941;28;20032;-60
2023/12/08 01:34:43;;;;;;;36.10;20.52;;;1.80;71.10;;;;;;5050317;28;20029;-60
2023/12/08 01:37:08;;;;;;;38.85;22.13;;;1.70;71.20;;;;;;5052913;28;20453;-61
2023/12/08 01:39:34;;;;;;;38.13;21.83;;;1.70;70.90;;;;;;5046119;28;20020;-60
2023/12/08 01:42:00;;;;;;;43.63;22.17;;;1.70;71.00;;;;;;5045611;28;20044;-62
2023/12/08 01:44:25;;;;;;;38.90;21.17;;;1.70;71.10;;;;;;5051803;28;20451;-61
2023/12/08 01:46:52;;;;;;;38.22;20.90;;;1.70;71.30;;;;;;5049114;28;20336;-61
2023/12/08 01:49:18;;;;;;;34.08;19.73;;;1.70;71.40;;;;;;5047428;28;20111;-60
2023/12/08 01:51:45;;;;;;;39.33;21.95;;;1.70;71.50;;;;;;5046520;28;20022;-61
2023/12/08 01:54:13;;;;;;;36.72;21.33;;;1.70;71.60;;;;;;5044367;28;20506;-63
2023/12/08 01:56:40;;;;;;;34.65;20.15;;;1.70;71.70;;;;;;5051986;28;20491;-60
2023/12/08 01:59:08;;;;;;;41.25;23.40;;;1.70;71.70;;;;;;5044929;28;20029;-61
2023/12/08 02:01:34;;;;;;;37.85;21.60;;;1.80;71.80;;;;;;5043346;28;20650;-61
2023/12/08 02:04:00;;;;;;;38.65;21.08;;;1.80;71.80;;;;;;5045484;28;20413;-60
2023/12/08 02:06:25;;;;;;;34.05;20.10;;;1.80;71.70;;;;;;5044883;28;20060;-61
2023/12/08 02:08:51;;;;;;;35.92;20.85;;;2.00;71.80;;;;;;5044352;28;20100;-62
2023/12/08 02:11:18;;;;;;;38.25;22.00;;;1.80;71.30;;;;;;5047054;28;20111;-62
2023/12/08 02:13:44;;;;;;;35.22;20.50;;;1.80;71.40;;;;;;5055378;28;20032;-60
2023/12/08 02:16:19;;;;;;;35.33;19.90;;;1.80;71.40;;;;;;5048520;28;20029;-60
2023/12/08 02:18:45;;;;;;;33.90;19.50;;;1.80;71.50;;;;;;5047435;28;20032;-62
2023/12/08 02:21:13;;;;;;;36.42;21.35;;;1.80;71.50;;;;;;5052882;28;20098;-60
2023/12/08 02:23:48;;;;;;;36.00;20.65;;;1.90;71.50;;;;;;5051394;28;20028;-60
2023/12/08 02:26:15;;;;;;;38.35;21.65;;;1.90;71.50;;;;;;5047427;28;20090;-61
2023/12/08 02:28:40;;;;;;;35.97;20.70;;;1.90;71.40;;;;;;5043838;28;20033;-62
2023/12/08 02:31:10;;;;;;;34.42;19.17;;;1.80;71.40;;;;;;5045932;28;20467;-61
2023/12/08 02:33:39;;;;;;;31.67;19.30;;;2.00;71.70;;;;;;5046653;28;20063;-60
2023/12/08 02:36:06;;;;;;;33.13;19.83;;;2.10;71.70;;;;;;5047558;28;20029;-61
2023/12/08 02:38:33;;;;;;;36.92;19.98;;;1.90;71.40;;;;;;5049521;28;20743;-61
2023/12/08 02:40:59;;;;;;;33.05;19.23;;;1.90;71.30;;;;;;5044801;28;20534;-60
2023/12/08 02:43:25;;;;;;;36.72;20.10;;;1.90;71.30;;;;;;5052844;28;20025;-61
2023/12/08 02:45:50;;;;;;;33.40;20.13;;;2.00;71.30;;;;;;4993351;28;20036;-61
2023/12/08 02:48:16;;;;;;;40.63;21.30;;;1.90;71.20;;;;;;5052326;28;20086;-62
2023/12/08 02:50:43;;;;;;;33.60;19.80;;;1.90;71.30;;;;;;5050430;28;20029;-61
2023/12/08 02:53:09;;;;;;;37.03;21.08;;;1.80;71.20;;;;;;5059482;28;20086;-61
2023/12/08 02:55:35;;;;;;;36.22;21.02;;;1.90;71.30;;;;;;5051572;28;20765;-60
2023/12/08 02:58:00;;;;;;;40.45;20.70;;;1.80;71.20;;;;;;5051043;28;20033;-60
2023/12/08 03:00:26;;;;;;;34.35;19.42;;;1.80;71.20;;;;;;5051404;28;20040;-61
2023/12/08 03:02:52;;;;;;;38.20;21.60;;;1.80;70.90;;;;;;5049680;28;20559;-61
2023/12/08 03:05:17;;;;;;;41.15;21.60;;;1.80;70.50;;;;;;5045018;28;20029;-60
2023/12/08 03:07:43;;;;;;;42.67;21.45;;;1.70;70.60;;;;;;5047919;28;20544;-61
2023/12/08 03:10:09;;;;;;;42.28;23.80;;;1.60;70.70;;;;;;5052137;28;20036;-61
2023/12/08 03:12:35;;;;;;;37.97;21.30;;;1.60;70.70;;;;;;5047601;28;20045;-62
2023/12/08 03:15:01;;;;;;;38.33;20.40;;;1.50;71.00;;;;;;5051433;28;20029;-61
2023/12/08 03:17:27;;;;;;;37.90;20.58;;;1.50;71.40;;;;;;5048144;28;20653;-61
2023/12/08 03:19:52;;;;;;;38.67;21.77;;;1.50;71.50;;;;;;5044479;28;20025;-61
2023/12/08 03:22:18;;;;;;;39.10;20.90;;;1.50;71.70;;;;;;5052311;28;20431;-61
2023/12/08 03:24:44;;;;;;;38.83;20.60;;;1.50;71.90;;;;;;5048114;28;20036;-61
2023/12/08 03:27:09;;;;;;;36.17;20.42;;;1.70;72.10;;;;;;5046949;28;20052;-61
2023/12/08 03:29:40;;;;;;;37.63;21.27;;;1.60;72.20;;;;;;5045990;28;20090;-61
2023/12/08 03:32:06;;;;;;;36.72;21.13;;;1.50;72.20;;;;;;5048829;28;20029;-61
2023/12/08 03:34:31;;;;;;;37.58;20.95;;;1.60;72.20;;;;;;5051320;28;20032;-60
2023/12/08 03:36:57;;;;;;;35.63;21.33;;;1.60;72.10;;;;;;5050813;28;20040;-61
2023/12/08 03:39:23;;;;;;;36.00;19.75;;;1.90;72.30;;;;;;5044679;28;20067;-61
2023/12/08 03:41:48;;;;;;;35.08;20.02;;;1.70;72.10;;;;;;5051316;28;20044;-61
2023/12/08 03:44:14;;;;;;;42.55;21.48;;;1.80;72.10;;;;;;5047048;28;20053;-60
2023/12/08 03:46:43;;;;;;;36.30;20.13;;;1.70;72.00;;;;;;5047025;28;20115;-62
2023/12/08 03:49:09;;;;;;;35.13;20.55;;;1.70;71.90;;;;;;5046055;28;20021;-61
2023/12/08 03:51:35;;;;;;;37.85;21.35;;;1.80;71.90;;;;;;5048271;28;20460;-60
2023/12/08 03:54:02;;;;;;;40.00;21.42;;;1.80;71.90;;;;;;5048004;28;20029;-60
2023/12/08 03:56:27;;;;;;;37.80;21.42;;;1.80;71.90;;;;;;5049782;28;20029;-60
2023/12/08 03:58:53;;;;;;;37.72;21.27;;;2.00;72.00;;;;;;5047484;28;20087;-61
2023/12/08 04:01:19;;;;;;;36.08;20.40;;;1.80;71.90;;;;;;5051278;28;20027;-61
2023/12/08 04:03:45;;;;;;;35.60;20.42;;;1.80;71.80;;;;;;5050825;28;20725;-60
2023/12/08 04:06:11;;;;;;;33.03;19.42;;;1.90;71.80;;;;;;5051140;28;20044;-61
2023/12/08 04:08:37;;;;;;;46.10;28.98;;;1.90;71.80;;;;;;5047107;28;20446;-60
2023/12/08 04:11:03;;;;;;;49.92;30.10;;;1.90;71.70;;;;;;5043924;28;20034;-60
2023/12/08 04:13:28;;;;;;;41.15;24.58;;;1.90;71.70;;;;;;5049017;28;20032;-61
2023/12/08 04:15:54;;;;;;;42.42;23.17;;;1.90;71.60;;;;;;5049832;28;20036;-61
2023/12/08 04:18:20;;;;;;;39.88;22.60;;;2.00;71.70;;;;;;5050898;28;20036;-62
2023/12/08 04:20:45;;;;;;;37.42;22.20;;;2.00;71.60;;;;;;5049565;28;20036;-62
2023/12/08 04:23:11;;;;;;;38.60;21.17;;;2.10;71.70;;;;;;5053345;28;20025;-61
2023/12/08 04:25:37;;;;;;;33.97;19.35;;;2.00;71.50;;;;;;5048655;28;20057;-61
2023/12/08 04:28:04;;;;;;;37.53;19.35;;;2.00;71.40;;;;;;5047395;28;20144;-61
2023/12/08 04:30:29;;;;;;;37.97;20.20;;;2.00;71.40;;;;;;5054602;28;20071;-62
2023/12/08 04:32:55;;;;;;;35.22;20.15;;;2.00;71.40;;;;;;5048735;28;20020;-61
2023/12/08 04:35:22;;;;;;;35.70;20.95;;;2.00;71.40;;;;;;5050518;28;20112;-61
2023/12/08 04:37:48;;;;;;;35.70;20.90;;;2.00;71.40;;;;;;5051134;28;20061;-60
2023/12/08 04:40:14;;;;;;;35.00;20.42;;;2.00;71.30;;;;;;5051887;28;20064;-60
2023/12/08 04:42:40;;;;;;;36.90;20.52;;;2.00;71.30;;;;;;5047271;28;20408;-59
2023/12/08 04:45:07;;;;;;;52.00;23.08;;;2.10;71.40;;;;;;5051160;28;20029;-60
2023/12/08 04:47:34;;;;;;;39.78;22.70;;;2.00;71.30;;;;;;4984779;28;20013;-61
2023/12/08 04:50:00;;;;;;;37.78;21.58;;;2.00;71.30;;;;;;5042957;28;20040;-61
2023/12/08 04:52:26;;;;;;;42.97;23.38;;;2.10;71.40;;;;;;5047301;28;20098;-60
2023/12/08 04:54:51;;;;;;;36.35;21.00;;;2.20;71.40;;;;;;5046847;28;20476;-60
2023/12/08 04:57:17;;;;;;;38.72;21.83;;;2.00;71.30;;;;;;5045844;28;20440;-60
2023/12/08 04:59:42;;;;;;;34.85;21.20;;;2.10;71.20;;;;;;5047008;28;20352;-60
2023/12/08 05:02:08;;;;;;;37.13;20.83;;;2.10;71.20;;;;;;5047050;28;20108;-60
2023/12/08 05:04:34;;;;;;;33.13;19.85;;;2.10;71.20;;;;;;5050147;28;20162;-60
2023/12/08 05:06:59;;;;;;;37.13;20.75;;;2.10;71.30;;;;;;5042264;28;20037;-60
2023/12/08 05:09:26;;;;;;;38.60;21.85;;;2.10;71.20;;;;;;5046698;28;20123;-61
2023/12/08 05:11:51;;;;;;;33.85;20.15;;;2.10;71.20;;;;;;5044592;28;20143;-61
2023/12/08 05:14:17;;;;;;;33.30;20.77;;;2.10;71.30;;;;;;5047572;28;20119;-61
2023/12/08 05:16:42;;;;;;;37.28;21.67;;;2.10;71.30;;;;;;5041530;28;20098;-60
2023/12/08 05:19:09;;;;;;;36.42;20.30;;;2.10;71.30;;;;;;5050237;28;20017;-59
2023/12/08 05:21:34;;;;;;;38.75;20.75;;;2.00;71.20;;;;;;5047153;28;20025;-61
2023/12/08 05:24:00;;;;;;;36.20;20.00;;;2.00;71.20;;;;;;5045952;28;20514;-61
2023/12/08 05:26:26;;;;;;;37.05;21.70;;;2.00;71.20;;;;;;5047849;28;20040;-61
2023/12/08 05:28:51;;;;;;;36.00;20.70;;;2.00;71.10;;;;;;5044051;28;20040;-61
2023/12/08 05:31:18;;;;;;;39.50;21.48;;;2.30;71.40;;;;;;5048368;28;20040;-60
2023/12/08 05:33:44;;;;;;;37.00;22.27;;;2.20;71.40;;;;;;5051022;28;20587;-60
2023/12/08 05:36:10;;;;;;;37.13;21.83;;;2.10;71.40;;;;;;5049128;28;20149;-60
2023/12/08 05:38:35;;;;;;;37.22;21.52;;;2.10;71.40;;;;;;5045347;28;20060;-63
2023/12/08 05:41:03;;;;;;;37.78;21.40;;;2.10;71.40;;;;;;5046174;28;20148;-59
2023/12/08 05:43:32;;;;;;;38.80;22.38;;;2.10;71.40;;;;;;5046132;28;20097;-61
2023/12/08 05:45:58;;;;;;;36.03;22.02;;;2.10;71.40;;;;;;4970886;28;20640;-60
2023/12/08 05:48:27;;;;;;;38.22;22.13;;;2.10;71.40;;;;;;5046449;28;20028;-61
2023/12/08 05:50:52;;;;;;;40.15;22.20;;;2.10;71.30;;;;;;5046129;28;20044;-60
2023/12/08 05:53:18;;;;;;;38.22;22.08;;;2.10;71.20;;;;;;5054210;28;20025;-61
2023/12/08 05:55:44;;;;;;;39.90;21.92;;;2.30;71.40;;;;;;5049587;28;20024;-60
2023/12/08 05:58:09;;;;;;;37.95;22.23;;;2.10;71.40;;;;;;5044883;28;20037;-60
2023/12/08 06:00:35;;;;;;;38.50;21.77;;;2.10;71.40;;;;;;5044402;28;20025;-59
2023/12/08 06:03:02;;;;;;;39.42;21.65;;;2.10;71.50;;;;;;5050486;28;20721;-61
2023/12/08 06:05:27;;;;;;;40.30;22.90;;;2.20;71.50;;;;;;5044772;28;20086;-61
2023/12/08 06:07:53;;;;;;;36.75;21.10;;;2.20;71.50;;;;;;5051178;28;20107;-59
2023/12/08 06:10:19;;;;;;;37.85;21.60;;;2.20;71.50;;;;;;5042277;28;20175;-59
2023/12/08 06:12:44;;;;;;;37.20;21.70;;;2.30;71.40;;;;;;5046078;28;20025;-60
2023/12/08 06:15:10;;;;;;;39.00;21.50;;;2.30;71.40;;;;;;5048223;28;20036;-61
2023/12/08 06:17:37;;;;;;;43.38;25.33;;;2.20;71.30;;;;;;5042788;28;20029;-61
2023/12/08 06:20:09;;;;;;;38.55;21.83;;;2.20;71.30;;;;;;5050551;28;20036;-60
2023/12/08 06:22:38;;;;;;;40.60;21.20;;;2.20;71.20;;;;;;5041210;28;20025;-60
2023/12/08 06:25:04;;;;;;;39.13;22.13;;;2.20;71.30;;;;;;5045366;28;20017;-62
2023/12/08 06:27:31;;;;;;;44.55;22.83;;;2.10;71.30;;;;;;5042030;28;20140;-61
2023/12/08 06:29:56;;;;;;;37.78;22.48;;;2.10;71.40;;;;;;5044659;28;20112;-59
2023/12/08 06:32:25;;;;;;;42.38;22.40;;;2.10;71.50;;;;;;5044362;28;20108;-61
2023/12/08 06:34:51;;;;;;;41.33;23.63;;;2.10;71.50;;;;;;5045377;28;20040;-61
2023/12/08 06:37:16;;;;;;;51.88;27.85;;;2.10;71.50;;;;;;5048086;28;20421;-60
2023/12/08 06:39:42;;;;;;;48.35;26.35;;;2.10;71.60;;;;;;5042103;28;20021;-60
2023/12/08 06:42:08;;;;;;;46.30;24.42;;;2.10;71.60;;;;;;5044219;28;20516;-60
2023/12/08 06:44:34;;;;;;;39.75;22.63;;;2.10;71.60;;;;;;5047034;28;20536;-60
2023/12/08 06:47:00;;;;;;;43.10;25.00;;;2.10;71.60;;;;;;4971549;28;20064;-60
2023/12/08 06:49:25;;;;;;;44.67;24.42;;;2.10;71.60;;;;;;5046817;28;20196;-60
2023/12/08 06:51:51;;;;;;;40.40;22.30;;;2.10;71.60;;;;;;5045699;28;20040;-60
2023/12/08 06:54:17;;;;;;;39.10;22.30;;;2.10;71.50;;;;;;5044960;28;20037;-60
2023/12/08 06:56:42;;;;;;;37.70;21.75;;;2.10;71.60;;;;;;5050112;28;20029;-60
2023/12/08 06:59:09;;;;;;;35.97;22.00;;;2.10;71.50;;;;;;5048161;28;20037;-61
2023/12/08 07:01:37;;;;;;;36.85;21.73;;;2.10;71.50;;;;;;5049942;28;20743;-61
2023/12/08 07:04:06;;;;;;;37.50;22.58;;;2.10;71.60;;;;;;5053830;28;20055;-59
2023/12/08 07:06:32;;;;;;;36.97;21.50;;;2.10;71.60;;;;;;5050357;28;20033;-61
2023/12/08 07:08:59;;;;;;;43.72;23.25;;;2.10;71.60;;;;;;5047185;28;20032;-60
2023/12/08 07:11:24;;;;;;;39.05;23.38;;;2.10;71.70;;;;;;5053516;28;20044;-60
2023/12/08 07:13:50;;;;;;;40.47;23.33;;;2.30;71.80;;;;;;5050867;28;20029;-62
2023/12/08 07:16:16;;;;;;;41.75;23.70;;;2.10;71.70;;;;;;5053252;28;20035;-63
2023/12/08 07:18:41;;;;;;;39.78;22.73;;;2.20;71.70;;;;;;5048450;28;20017;-62
2023/12/08 07:21:07;;;;;;;38.50;22.48;;;2.40;71.90;;;;;;5050526;28;20037;-61
2023/12/08 07:23:33;;;;;;;38.60;23.10;;;2.20;71.80;;;;;;5050953;28;20032;-62
2023/12/08 07:26:00;;;;;;;40.90;22.75;;;2.20;71.70;;;;;;5052230;28;20029;-62
2023/12/08 07:28:26;;;;;;;40.83;22.38;;;2.30;72.40;;;;;;5050680;28;20021;-62
2023/12/08 07:30:51;;;;;;;38.30;22.42;;;2.30;71.80;;;;;;5051142;28;20699;-61
2023/12/08 07:33:17;;;;;;;39.75;23.33;;;2.30;71.80;;;;;;5055771;28;20056;-62
2023/12/08 07:35:43;;;;;;;41.13;22.95;;;2.40;71.80;;;;;;5045603;28;20021;-61
2023/12/08 07:38:08;;;;;;;41.78;23.17;;;2.40;71.70;;;;;;5050652;28;20372;-61
2023/12/08 07:40:34;;;;;;;43.03;24.23;;;2.50;71.60;;;;;;5049099;28;20483;-62
2023/12/08 07:43:00;;;;;;;45.75;23.85;;;2.50;71.70;;;;;;5047261;28;20730;-63
2023/12/08 07:45:25;;;;;;;39.72;24.40;;;2.50;71.60;;;;;;5050412;28;20029;-62
2023/12/08 07:47:52;;;;;;;43.38;25.08;;;2.60;71.50;;;;;;5049071;28;20516;-61
2023/12/08 07:50:18;;;;;;;41.95;24.20;;;2.60;71.40;;;;;;5052135;28;20103;-64
2023/12/08 07:52:44;;;;;;;41.55;24.75;;;2.70;71.40;;;;;;5052954;28;20444;-62
2023/12/08 07:55:10;;;;;;;41.90;24.42;;;2.70;71.30;;;;;;5047605;28;20040;-62
2023/12/08 07:57:36;;;;;;;40.70;23.60;;;2.70;71.20;;;;;;5049910;28;20087;-62
2023/12/08 08:00:05;;;;;;;45.22;25.60;;;2.80;71.30;;;;;;5046929;28;20426;-63
2023/12/08 08:02:31;;;;;;;44.45;24.83;;;2.80;71.20;;;;;;5047789;28;20113;-61
2023/12/08 08:04:57;;;;;;;47.15;25.48;;;2.80;71.10;;;;;;5051962;28;20112;-63
2023/12/08 08:07:23;;;;;;;48.28;28.35;;;2.90;71.20;;;;;;5046946;28;20029;-63
2023/12/08 08:09:48;;;;;;;48.35;28.33;;;2.80;71.30;;;;;;5050087;28;20044;-62
2023/12/08 08:12:15;;;;;;;54.50;28.63;;;2.90;71.50;;;;;;5049328;28;20029;-62
2023/12/08 08:14:42;;;;;;;52.13;28.30;;;2.90;71.60;;;;;;5042188;28;20131;-61
2023/12/08 08:17:08;;;;;;;50.10;27.33;;;2.90;71.60;;;;;;5047278;28;20032;-61
2023/12/08 08:19:33;;;;;;;45.95;27.23;;;3.00;71.70;;;;;;5046842;28;20025;-62
2023/12/08 08:21:59;;;;;;;42.55;25.58;;;3.10;71.80;;;;;;5051686;28;20064;-62
2023/12/08 08:24:26;;;;;;;45.35;26.63;;;3.10;71.70;;;;;;5046081;28;20393;-62
2023/12/08 08:26:51;;;;;;;44.30;26.23;;;3.20;71.80;;;;;;5043819;28;20090;-62
2023/12/08 08:29:17;;;;;;;44.90;25.20;;;3.20;71.70;;;;;;5053789;28;20473;-63
2023/12/08 08:31:43;;;;;;;44.00;26.00;;;3.30;71.60;;;;;;5041258;28;20119;-62
2023/12/08 08:34:08;;;;;;;46.97;26.80;;;3.40;71.40;;;;;;5045258;28;20144;-62
2023/12/08 08:36:34;;;;;;;50.08;27.38;;;3.40;71.20;;;;;;5050020;28;20044;-62
2023/12/08 08:39:00;;;;;;;47.65;27.38;;;3.50;71.20;;;;;;5050491;28;20132;-62
2023/12/08 08:41:27;;;;;;;46.05;26.02;;;3.60;71.10;;;;;;5044389;28;20099;-62
2023/12/08 08:43:52;;;;;;;45.28;27.08;;;3.60;71.00;;;;;;5048934;28;20025;-62
2023/12/08 08:46:18;;;;;;;42.90;25.10;;;3.60;70.90;;;;;;5046835;28;20094;-62
2023/12/08 08:48:44;;;;;;;41.97;25.42;;;3.60;70.90;;;;;;5047368;28;20522;-63
2023/12/08 08:51:10;;;;;;;48.42;26.48;;;3.70;71.10;;;;;;5046739;28;20049;-62
2023/12/08 08:53:36;;;;;;;48.42;26.75;;;3.70;71.10;;;;;;5045108;28;20124;-62
2023/12/08 08:56:02;;;;;;;48.05;26.58;;;3.70;71.20;;;;;;5051510;28;20028;-62
2023/12/08 08:58:28;;;;;;;42.53;24.65;;;3.80;71.20;;;;;;5050041;28;20525;-62
2023/12/08 09:00:54;;;;;;;41.28;24.73;;;3.80;71.10;;;;;;5044432;28;20480;-62
2023/12/08 09:03:19;;;;;;;36.92;23.13;;;3.80;71.00;;;;;;5044577;28;20029;-63
2023/12/08 09:05:45;;;;;;;38.70;23.63;;;3.90;71.00;;;;;;5049997;28;20035;-64
2023/12/08 09:08:11;;;;;;;38.22;23.85;;;3.90;70.90;;;;;;5047258;28;20605;-63
2023/12/08 09:10:38;;;;;;;41.47;23.48;;;3.90;71.00;;;;;;5044962;28;20037;-63
2023/12/08 09:13:04;;;;;;;39.25;23.90;;;3.90;71.10;;;;;;5049605;28;20033;-61
2023/12/08 09:15:30;;;;;;;42.17;24.38;;;4.00;71.10;;;;;;5052859;28;20070;-63
2023/12/08 09:17:56;;;;;;;38.20;23.42;;;4.00;71.10;;;;;;5043611;28;20033;-63
2023/12/08 09:20:23;;;;;;;39.53;22.35;;;4.10;71.20;;;;;;5047130;28;20032;-62
2023/12/08 09:22:50;;;;;;;37.47;22.85;;;4.10;71.10;;;;;;5048428;28;20445;-64
2023/12/08 09:25:17;;;;;;;65.63;36.45;;;4.50;71.40;;;;;;5043698;28;20499;-63
2023/12/08 09:27:43;;;;;;;46.83;29.33;;;4.20;71.30;;;;;;5046669;28;20888;-62
2023/12/08 09:30:10;;;;;;;41.10;25.00;;;4.30;71.20;;;;;;5044846;28;20053;-64
2023/12/08 09:32:35;;;;;;;39.15;23.98;;;4.30;71.10;;;;;;5044275;28;20048;-63
2023/12/08 09:35:01;;;;;;;38.20;24.48;;;4.30;71.00;;;;;;5043404;28;20039;-61
2023/12/08 09:37:26;;;;;;;44.35;24.15;;;4.30;70.90;;;;;;5047464;28;20029;-62
2023/12/08 09:39:52;;;;;;;38.40;22.60;;;4.40;71.00;;;;;;5047066;28;20143;-63
2023/12/08 09:42:34;;;;;;;37.63;22.38;;;4.40;71.10;;;;;;5049278;28;20122;-62
2023/12/08 09:45:04;;;;;;;35.17;20.58;;;4.40;71.20;;;;;;5041387;28;22993;-63
2023/12/08 09:47:33;;;;;;;36.05;21.80;;;4.40;71.10;;;;;;5038895;28;20036;-61
2023/12/08 09:50:01;;;;;;;35.20;20.90;;;4.40;71.20;;;;;;5050878;28;20044;-62
2023/12/08 09:52:29;;;;;;;42.65;23.42;;;4.40;71.10;;;;;;5047178;28;20459;-62
2023/12/08 09:54:56;;;;;;;36.95;22.73;;;4.50;71.90;;;;;;5045184;28;20491;-61
2023/12/08 09:57:22;;;;;;;37.60;23.20;;;4.50;71.30;;;;;;5044542;28;20372;-62
2023/12/08 09:59:50;;;;;;;38.88;22.75;;;4.50;71.40;;;;;;5050383;28;20035;-62
2023/12/08 10:02:18;;;;;;;33.47;20.60;;;4.50;71.40;;;;;;5046728;28;20075;-63
2023/12/08 10:04:43;;;;;;;33.22;20.48;;;4.60;71.50;;;;;;5050567;28;20020;-62
2023/12/08 10:07:10;;;;;;;32.38;20.25;;;4.60;71.60;;;;;;5052892;28;20047;-62
2023/12/08 10:09:37;;;;;;;33.10;20.95;;;4.60;71.60;;;;;;5046266;28;20027;-62
2023/12/08 10:12:03;;;;;;;34.90;20.25;;;4.70;71.70;;;;;;5050322;28;20017;-61
2023/12/08 10:14:29;;;;;;;38.03;23.80;;;4.80;71.80;;;;;;5050091;28;20024;-62
2023/12/08 10:16:55;;;;;;;33.92;21.80;;;4.80;71.80;;;;;;5051404;28;20447;-64
2023/12/08 10:19:22;;;;;;;36.92;22.40;;;4.80;71.80;;;;;;5050771;28;20052;-63
2023/12/08 10:22:00;;;;;;;38.85;24.38;;;4.90;71.80;;;;;;5049082;28;20514;-61
2023/12/08 10:24:30;;;;;;;35.95;23.25;;;5.00;71.80;;;;;;5042490;28;20488;-64
2023/12/08 10:26:59;;;;;;;36.03;23.58;;;5.00;71.60;;;;;;5039187;28;20118;-62
2023/12/08 10:29:32;;;;;;;36.70;23.67;;;5.00;71.50;;;;;;5047236;28;20507;-61
2023/12/08 10:31:58;;;;;;;39.17;23.08;;;5.10;71.60;;;;;;5050978;28;20056;-62
2023/12/08 10:34:25;;;;;;;38.22;23.38;;;5.10;71.50;;;;;;5049607;28;20091;-62
2023/12/08 10:36:55;;;;;;;36.83;23.17;;;5.10;71.50;;;;;;5051457;28;20044;-65
2023/12/08 10:39:20;;;;;;;36.83;22.73;;;5.20;71.60;;;;;;5046790;28;20025;-64
2023/12/08 10:41:53;;;;;;;39.53;23.25;;;5.20;71.60;;;;;;5045573;28;20044;-64
2023/12/08 10:44:21;;;;;;;35.92;22.25;;;5.30;71.60;;;;;;5048008;28;20025;-63
2023/12/08 10:46:50;;;;;;;37.13;22.08;;;5.30;71.50;;;;;;5049078;28;20037;-63
2023/12/08 10:49:21;;;;;;;35.58;21.95;;;5.30;71.40;;;;;;5054563;28;20041;-63
2023/12/08 10:51:48;;;;;;;48.55;22.13;;;5.40;71.40;;;;;;5044160;28;20530;-64
2023/12/08 10:54:17;;;;;;;83.53;25.02;;;5.40;71.50;;;;;;5053032;28;20058;-63
2023/12/08 10:56:48;;;;;;;52.78;24.13;;;5.50;71.50;;;;;;5050750;28;20496;-63
2023/12/08 10:59:25;;;;;;;40.30;23.02;;;5.50;71.50;;;;;;5047880;28;20055;-63
2023/12/08 11:01:54;;;;;;;35.00;20.38;;;5.60;71.60;;;;;;5047520;28;20029;-63
2023/12/08 11:04:21;;;;;;;36.25;20.70;;;5.60;71.40;;;;;;5051743;28;21103;-63
2023/12/08 11:07:12;;;;;;;33.10;20.67;;;5.70;71.40;;;;;;5045884;28;20032;-63
2023/12/08 11:09:40;;;;;;;36.40;21.17;;;5.70;71.30;;;;;;5049852;28;20021;-64
2023/12/08 11:12:10;;;;;;;36.35;22.83;;;5.70;71.20;;;;;;5050313;28;20036;-64
2023/12/08 11:14:41;;;;;;;33.95;21.80;;;5.80;71.30;;;;;;5048993;28;20096;-63
2023/12/08 11:17:30;;;;;;;36.55;22.02;;;5.80;71.20;;;;;;5045497;28;20028;-63
2023/12/08 11:19:58;;;;;;;43.03;23.20;;;5.80;71.10;;;;;;5046188;28;20666;-64
2023/12/08 11:22:24;;;;;;;56.08;24.75;;;5.90;71.20;;;;;;5050442;28;20032;-64
2023/12/08 11:24:50;;;;;;;37.00;23.73;;;5.90;71.20;;;;;;5045580;28;20353;-63
2023/12/08 11:27:30;;;;;;;38.55;23.80;;;5.90;71.20;;;;;;5048844;28;20090;-63
2023/12/08 11:30:08;;;;;;;41.28;23.20;;;6.00;71.20;;;;;;5047257;28;20518;-63
2023/12/08 11:33:02;;;;;;;40.17;23.50;;;6.00;71.10;;;;;;5051029;28;20017;-62
2023/12/08 11:35:29;;;;;;;36.47;22.15;;;6.10;71.10;;;;;;5044498;28;20083;-64
2023/12/08 11:37:55;;;;;;;41.38;23.17;;;6.10;71.00;;;;;;5047050;28;20049;-64
2023/12/08 11:40:21;;;;;;;39.22;23.05;;;6.10;71.00;;;;;;5046372;28;20053;-64
2023/12/08 11:42:47;;;;;;;36.75;22.60;;;6.20;71.00;;;;;;5048712;28;20147;-62
2023/12/08 11:45:13;;;;;;;37.38;22.15;;;6.20;70.90;;;;;;5047753;28;20029;-64
2023/12/08 11:47:43;;;;;;;37.08;23.10;;;6.20;70.80;;;;;;5046950;28;20422;-65
2023/12/08 11:50:11;;;;;;;37.05;22.85;;;6.30;70.80;;;;;;5054737;28;20041;-63
2023/12/08 11:52:37;;;;;;;34.75;22.17;;;6.30;70.90;;;;;;5056274;28;20352;-64
2023/12/08 11:55:12;;;;;;;37.72;22.30;;;6.30;70.80;;;;;;5043389;28;20399;-63
2023/12/08 11:57:41;;;;;;;36.03;21.88;;;6.40;70.80;;;;;;5046001;28;20686;-63
2023/12/08 12:00:11;;;;;;;38.15;22.95;;;6.40;70.80;;;;;;5049796;28;20094;-63
2023/12/08 12:02:41;;;;;;;53.58;24.05;;;6.50;70.80;;;;;;5053242;28;20033;-63
2023/12/08 12:05:07;;;;;;;89.03;27.17;;;6.50;70.70;;;;;;5046278;28;20024;-64
2023/12/08 12:07:33;;;;;;;41.60;25.73;;;6.60;70.70;;;;;;5045036;28;20022;-63
2023/12/08 12:10:02;;;;;;;169.32;29.48;;;6.60;70.80;;;;;;5045151;28;20049;-63
2023/12/08 12:12:31;;;;;;;54.42;24.90;;;6.60;70.80;;;;;;5051098;28;20035;-63
2023/12/08 12:15:03;;;;;;;42.83;21.80;;;6.70;70.70;;;;;;5046320;28;20430;-64
2023/12/08 12:17:29;;;;;;;34.28;20.38;;;6.70;70.50;;;;;;5049192;28;20032;-64
2023/12/08 12:19:55;;;;;;;37.53;22.45;;;6.80;70.30;;;;;;5047309;28;20041;-64
2023/12/08 12:22:21;;;;;;;77.53;24.25;;;6.80;70.20;;;;;;5042696;28;20029;-64
2023/12/08 12:24:48;;;;;;;74.00;23.95;;;6.80;70.20;;;;;;5050230;28;20648;-63
2023/12/08 12:27:14;;;;;;;90.00;26.92;;;6.80;70.10;;;;;;5046755;28;20127;-63
2023/12/08 12:29:42;;;;;;;44.95;23.77;;;6.90;70.20;;;;;;5048169;28;20064;-63
2023/12/08 12:32:08;;;;;;;72.97;28.88;;;6.90;70.20;;;;;;5043753;28;20029;-63
2023/12/08 12:34:38;;;;;;;38.50;23.95;;;6.90;70.20;;;;;;5045917;28;20384;-64